Time,TemperatureF,DewpointF,PressureIn,WindDirection,WindDirectionDegrees,WindSpeedMPH,WindSpeedGustMPH,Humidity,HourlyPrecipIn,Conditions,Clouds,dailyrainin,SoftwareType,DateUTC
2013-07-10 00:02:00,76.8,75.0,29.98,SW,232,0.0,0.0,94,0.00,,,0.00,meteobridge,2013-07-10 04:02:00,
2013-07-10 00:08:00,76.8,75.0,29.98,SW,232,0.0,0.0,94,0.00,,,0.00,meteobridge,2013-07-10 04:08:00,
2013-07-10 00:13:00,76.8,75.0,29.98,SW,232,0.0,0.0,94,0.00,,,0.00,meteobridge,2013-07-10 04:13:00,
2013-07-10 00:18:00,76.8,75.0,29.98,SW,232,0.0,0.0,94,0.00,,,0.00,meteobridge,2013-07-10 04:18:00,
2013-07-10 00:23:00,76.8,75.2,29.98,SW,232,0.0,0.0,95,0.00,,,0.00,meteobridge,2013-07-10 04:23:00,
2013-07-10 00:28:00,76.8,75.2,29.98,SW,232,0.0,0.0,95,0.00,,,0.00,meteobridge,2013-07-10 04:28:00,
2013-07-10 00:33:00,76.6,75.0,29.98,SW,232,0.0,0.0,95,0.00,,,0.00,meteobridge,2013-07-10 04:33:00,
2013-07-10 00:39:00,76.6,75.0,29.98,SW,232,0.0,0.0,95,0.00,,,0.00,meteobridge,2013-07-10 04:39:00,
2013-07-10 00:44:00,76.6,75.0,29.98,SW,232,0.0,0.0,95,0.00,,,0.00,meteobridge,2013-07-10 04:44:00,
2013-07-10 00:49:00,76.6,75.0,29.98,SW,232,0.0,0.0,95,0.00,,,0.00,meteobridge,2013-07-10 04:49:00,
2013-07-10 00:54:00,76.5,74.8,29.98,SW,232,0.0,0.0,95,0.00,,,0.00,meteobridge,2013-07-10 04:54:00,
2013-07-10 00:59:00,76.3,74.7,29.98,SW,232,0.0,0.0,95,0.00,,,0.00,meteobridge,2013-07-10 04:59:00,
2013-07-10 01:04:00,76.1,74.5,29.98,SW,232,0.0,0.0,95,0.00,,,0.00,meteobridge,2013-07-10 05:04:00,
2013-07-10 01:10:00,75.9,74.3,29.98,SW,232,0.0,0.0,95,0.00,,,0.00,meteobridge,2013-07-10 05:10:00,
2013-07-10 01:15:00,75.9,74.3,29.98,SW,232,0.0,0.0,95,0.00,,,0.00,meteobridge,2013-07-10 05:15:00,
2013-07-10 01:20:00,75.7,74.1,29.98,SW,232,0.0,0.0,95,0.00,,,0.00,meteobridge,2013-07-10 05:20:00,
2013-07-10 01:25:00,75.7,74.1,29.98,SW,232,0.0,0.0,95,0.00,,,0.00,meteobridge,2013-07-10 05:25:00,
2013-07-10 01:30:00,75.4,73.8,29.98,SW,232,0.0,0.0,95,0.00,,,0.00,meteobridge,2013-07-10 05:30:00,
2013-07-10 01:35:00,75.4,73.8,29.98,SW,232,0.0,0.0,95,0.00,,,0.00,meteobridge,2013-07-10 05:35:00,
2013-07-10 01:40:00,75.4,73.8,29.98,SW,220,0.0,0.9,95,0.00,,,0.00,meteobridge,2013-07-10 05:40:00,
2013-07-10 01:46:00,75.4,73.6,29.98,South,178,0.0,0.9,94,0.00,,,0.00,meteobridge,2013-07-10 05:46:00,
2013-07-10 01:51:00,75.9,73.8,29.98,South,169,2.9,2.9,93,0.00,,,0.00,meteobridge,2013-07-10 05:51:00,
2013-07-10 01:56:00,76.3,73.4,29.98,SSW,209,2.9,2.9,91,0.00,,,0.00,meteobridge,2013-07-10 05:56:00,
2013-07-10 02:01:00,76.6,73.4,29.97,SSW,209,2.0,2.9,90,0.00,,,0.00,meteobridge,2013-07-10 06:01:00,
2013-07-10 02:06:00,76.8,73.4,29.97,SSW,196,0.0,0.9,89,0.00,,,0.00,meteobridge,2013-07-10 06:06:00,
2013-07-10 02:11:00,77.0,73.6,29.97,SW,220,0.0,2.9,89,0.00,,,0.00,meteobridge,2013-07-10 06:11:00,
2013-07-10 02:16:00,77.0,73.6,29.97,SSW,210,2.0,4.0,89,0.00,,,0.00,meteobridge,2013-07-10 06:16:00,
2013-07-10 02:21:00,77.0,73.6,29.97,SSW,208,0.0,2.9,89,0.00,,,0.00,meteobridge,2013-07-10 06:21:00,
2013-07-10 02:26:00,77.0,73.6,29.97,WSW,244,4.9,4.9,89,0.00,,,0.00,meteobridge,2013-07-10 06:26:00,
2013-07-10 02:31:00,77.0,73.6,29.97,WSW,237,2.0,2.9,89,0.00,,,0.00,meteobridge,2013-07-10 06:31:00,
2013-07-10 02:36:00,77.0,73.6,29.97,SW,236,4.0,6.0,89,0.00,,,0.00,meteobridge,2013-07-10 06:36:00,
2013-07-10 02:41:00,77.0,73.6,29.97,WSW,237,0.0,2.0,89,0.00,,,0.00,meteobridge,2013-07-10 06:41:00,
2013-07-10 02:46:00,77.0,73.8,29.96,WSW,243,0.0,0.9,90,0.00,,,0.00,meteobridge,2013-07-10 06:46:00,
2013-07-10 02:52:00,77.0,73.8,29.96,WSW,243,0.0,0.0,90,0.00,,,0.00,meteobridge,2013-07-10 06:52:00,
2013-07-10 02:57:00,77.0,73.8,29.96,WSW,243,0.0,2.0,90,0.00,,,0.00,meteobridge,2013-07-10 06:57:00,
2013-07-10 03:02:00,76.8,73.6,29.96,WSW,243,0.0,2.9,90,0.00,,,0.00,meteobridge,2013-07-10 07:02:00,
2013-07-10 03:07:00,77.0,73.8,29.96,SW,236,0.9,4.9,90,0.00,,,0.00,meteobridge,2013-07-10 07:07:00,
2013-07-10 03:12:00,76.8,73.6,29.96,SW,236,0.0,2.0,90,0.00,,,0.00,meteobridge,2013-07-10 07:12:00,
2013-07-10 03:17:00,76.8,73.6,29.95,SW,234,0.0,2.0,90,0.00,,,0.00,meteobridge,2013-07-10 07:17:00,
2013-07-10 03:22:00,76.8,73.6,29.95,SW,233,0.0,0.9,90,0.00,,,0.00,meteobridge,2013-07-10 07:22:00,
2013-07-10 03:27:00,76.6,73.4,29.95,SW,227,2.0,2.0,90,0.00,,,0.00,meteobridge,2013-07-10 07:27:00,
2013-07-10 03:32:00,76.6,73.4,29.95,SW,219,0.9,2.9,90,0.00,,,0.00,meteobridge,2013-07-10 07:32:00,
2013-07-10 03:38:00,76.6,73.4,29.95,SSW,202,2.0,4.0,90,0.00,,,0.00,meteobridge,2013-07-10 07:38:00,
2013-07-10 03:43:00,76.6,73.4,29.95,SSW,202,0.0,2.9,90,0.00,,,0.00,meteobridge,2013-07-10 07:43:00,
2013-07-10 03:48:00,76.6,73.4,29.95,WSW,241,0.0,2.0,90,0.00,,,0.00,meteobridge,2013-07-10 07:48:00,
2013-07-10 03:53:00,76.6,73.4,29.95,WSW,239,0.0,0.9,90,0.00,,,0.00,meteobridge,2013-07-10 07:53:00,
2013-07-10 03:58:00,76.6,73.4,29.95,SW,229,0.0,2.0,90,0.00,,,0.00,meteobridge,2013-07-10 07:58:00,
2013-07-10 04:03:00,76.6,73.4,29.95,SW,230,0.0,2.0,90,0.00,,,0.00,meteobridge,2013-07-10 08:03:00,
2013-07-10 04:08:00,76.5,73.2,29.95,SW,229,0.0,2.0,90,0.00,,,0.00,meteobridge,2013-07-10 08:08:00,
2013-07-10 04:13:00,76.5,73.2,29.95,SW,230,0.9,2.0,90,0.00,,,0.00,meteobridge,2013-07-10 08:13:00,
2013-07-10 04:19:00,76.5,73.2,29.94,SW,216,0.0,2.0,90,0.00,,,0.00,meteobridge,2013-07-10 08:19:00,
2013-07-10 04:24:00,76.5,73.0,29.94,SSW,196,2.0,4.9,89,0.00,,,0.00,meteobridge,2013-07-10 08:24:00,
2013-07-10 04:29:00,76.5,73.0,29.94,South,181,2.9,6.0,89,0.00,,,0.00,meteobridge,2013-07-10 08:29:00,
2013-07-10 04:34:00,76.5,73.0,29.95,South,181,2.0,4.9,89,0.00,,,0.00,meteobridge,2013-07-10 08:34:00,
2013-07-10 04:39:00,76.3,72.5,29.95,South,181,2.0,2.0,88,0.00,,,0.00,meteobridge,2013-07-10 08:39:00,
2013-07-10 04:44:00,76.3,72.5,29.95,SSW,200,0.9,2.0,88,0.00,,,0.00,meteobridge,2013-07-10 08:44:00,
2013-07-10 04:49:00,76.3,72.5,29.95,SW,219,4.9,6.0,88,0.00,,,0.00,meteobridge,2013-07-10 08:49:00,
2013-07-10 04:54:00,76.3,72.5,29.95,SW,224,0.0,4.9,88,0.00,,,0.00,meteobridge,2013-07-10 08:54:00,
2013-07-10 04:59:00,76.1,72.3,29.95,SW,222,2.0,4.0,88,0.00,,,0.00,meteobridge,2013-07-10 08:59:00,
2013-07-10 05:04:00,76.1,72.3,29.95,SW,222,2.0,2.9,88,0.00,,,0.00,meteobridge,2013-07-10 09:04:00,
2013-07-10 05:09:00,76.1,72.3,29.95,SW,226,0.0,2.9,88,0.00,,,0.00,meteobridge,2013-07-10 09:09:00,
2013-07-10 05:14:00,75.9,72.1,29.95,SW,230,0.9,0.9,88,0.00,,,0.00,meteobridge,2013-07-10 09:14:00,
2013-07-10 05:19:00,75.9,72.1,29.95,WSW,240,0.0,4.9,88,0.00,,,0.00,meteobridge,2013-07-10 09:19:00,
2013-07-10 05:25:00,75.9,72.1,29.95,WSW,240,0.0,0.0,88,0.00,,,0.00,meteobridge,2013-07-10 09:25:00,
2013-07-10 05:30:00,75.7,72.0,29.95,WSW,240,0.9,2.0,88,0.00,,,0.00,meteobridge,2013-07-10 09:30:00,
2013-07-10 05:35:00,75.7,72.0,29.95,WSW,240,0.0,0.0,88,0.00,,,0.00,meteobridge,2013-07-10 09:35:00,
2013-07-10 05:40:00,75.7,72.0,29.95,WSW,240,0.0,2.9,88,0.00,,,0.00,meteobridge,2013-07-10 09:40:00,
2013-07-10 05:45:00,75.6,71.8,29.96,WSW,241,0.0,0.0,88,0.00,,,0.00,meteobridge,2013-07-10 09:45:00,
2013-07-10 05:50:00,75.6,71.4,29.96,WSW,241,0.0,0.0,87,0.00,,,0.00,meteobridge,2013-07-10 09:50:00,
2013-07-10 05:56:00,75.6,71.4,29.96,WSW,240,0.0,2.9,87,0.00,,,0.00,meteobridge,2013-07-10 09:56:00,
2013-07-10 06:01:00,75.6,71.4,29.96,WSW,240,0.0,0.9,87,0.00,,,0.00,meteobridge,2013-07-10 10:01:00,
2013-07-10 06:06:00,75.6,71.4,29.96,WSW,240,0.0,0.0,87,0.00,,,0.00,meteobridge,2013-07-10 10:06:00,
2013-07-10 06:11:00,75.4,71.2,29.96,WSW,240,0.0,0.0,87,0.00,,,0.00,meteobridge,2013-07-10 10:11:00,
2013-07-10 06:16:00,75.4,71.2,29.96,WSW,240,0.0,0.0,87,0.00,,,0.00,meteobridge,2013-07-10 10:16:00,
2013-07-10 06:22:00,75.4,71.2,29.96,WSW,240,0.0,0.0,87,0.00,,,0.00,meteobridge,2013-07-10 10:22:00,
2013-07-10 06:27:00,75.4,71.2,29.96,SSE,161,2.0,2.9,87,0.00,,,0.00,meteobridge,2013-07-10 10:27:00,
2013-07-10 06:32:00,75.4,71.2,29.96,SSE,161,0.0,0.9,87,0.00,,,0.00,meteobridge,2013-07-10 10:32:00,
2013-07-10 06:37:00,75.4,71.2,29.96,SSE,161,0.0,0.0,87,0.00,,,0.00,meteobridge,2013-07-10 10:37:00,
2013-07-10 06:42:00,75.4,71.2,29.96,SSE,161,0.0,0.0,87,0.00,,,0.00,meteobridge,2013-07-10 10:42:00,
2013-07-10 06:47:00,75.4,71.6,29.96,SSE,161,0.0,0.0,88,0.00,,,0.00,meteobridge,2013-07-10 10:47:00,
2013-07-10 06:52:00,75.0,71.2,29.96,SSE,161,0.0,0.0,88,0.00,,,0.00,meteobridge,2013-07-10 10:52:00,
2013-07-10 07:02:00,75.0,71.2,29.96,SSE,161,0.0,0.0,88,0.00,,,0.00,meteobridge,2013-07-10 11:02:00,
2013-07-10 07:08:00,75.0,71.2,29.96,SSE,161,0.0,0.0,88,0.00,,,0.00,meteobridge,2013-07-10 11:08:00,
2013-07-10 07:13:00,75.0,71.2,29.96,SSE,161,0.0,0.0,88,0.00,,,0.00,meteobridge,2013-07-10 11:13:00,
2013-07-10 07:18:00,75.0,71.2,29.96,SSE,161,0.0,0.0,88,0.00,,,0.00,meteobridge,2013-07-10 11:18:00,
2013-07-10 07:23:00,75.0,71.2,29.96,SSE,161,0.9,2.0,88,0.00,,,0.00,meteobridge,2013-07-10 11:23:00,
2013-07-10 07:28:00,74.8,71.4,29.96,SSE,161,0.0,0.0,89,0.00,,,0.00,meteobridge,2013-07-10 11:28:00,
2013-07-10 07:33:00,74.8,71.4,29.96,SSE,161,0.0,0.0,89,0.00,,,0.00,meteobridge,2013-07-10 11:33:00,
2013-07-10 07:38:00,74.8,71.4,29.96,SSE,161,2.0,2.0,89,0.01,,,0.01,meteobridge,2013-07-10 11:38:00,
2013-07-10 07:44:00,74.7,71.6,29.96,SSE,161,0.9,2.9,90,0.01,,,0.01,meteobridge,2013-07-10 11:44:00,
2013-07-10 07:49:00,74.7,71.6,29.96,SSE,161,0.0,0.0,90,0.01,,,0.01,meteobridge,2013-07-10 11:49:00,
2013-07-10 07:54:00,74.7,71.8,29.96,SSE,161,0.0,0.0,91,0.01,,,0.01,meteobridge,2013-07-10 11:54:00,
2013-07-10 07:59:00,74.5,71.6,29.96,SSE,161,0.0,0.0,91,0.01,,,0.01,meteobridge,2013-07-10 11:59:00,
2013-07-10 08:04:00,74.7,71.8,29.96,SSE,161,0.0,0.0,91,0.01,,,0.01,meteobridge,2013-07-10 12:04:00,
2013-07-10 08:09:00,74.5,71.6,29.96,SSE,161,0.0,0.0,91,0.01,,,0.01,meteobridge,2013-07-10 12:09:00,
2013-07-10 08:14:00,74.7,71.8,29.96,SSE,161,0.0,0.0,91,0.01,,,0.01,meteobridge,2013-07-10 12:14:00,
2013-07-10 08:19:00,74.7,71.8,29.96,SSE,161,0.0,0.0,91,0.01,,,0.01,meteobridge,2013-07-10 12:19:00,
2013-07-10 08:24:00,74.7,71.8,29.96,SSE,161,0.0,0.0,91,0.01,,,0.01,meteobridge,2013-07-10 12:24:00,
2013-07-10 08:29:00,74.8,72.0,29.96,SSE,161,0.0,0.0,91,0.01,,,0.01,meteobridge,2013-07-10 12:29:00,
2013-07-10 08:35:00,74.8,72.0,29.96,SSE,161,0.0,0.0,91,0.01,,,0.01,meteobridge,2013-07-10 12:35:00,
2013-07-10 08:40:00,75.0,72.1,29.96,SSE,161,0.0,0.0,91,0.00,,,0.01,meteobridge,2013-07-10 12:40:00,
2013-07-10 08:45:00,75.4,72.5,29.96,SSE,162,0.0,0.9,91,0.00,,,0.01,meteobridge,2013-07-10 12:45:00,
2013-07-10 08:50:00,75.4,72.5,29.96,SSE,161,0.0,0.0,91,0.00,,,0.01,meteobridge,2013-07-10 12:50:00,
2013-07-10 08:55:00,75.4,72.5,29.96,SSE,161,0.0,0.0,91,0.00,,,0.01,meteobridge,2013-07-10 12:55:00,
2013-07-10 09:00:00,75.4,72.5,29.96,SSE,161,0.0,2.0,91,0.00,,,0.01,meteobridge,2013-07-10 13:00:00,
2013-07-10 09:05:00,75.4,72.5,29.96,SSE,161,0.0,2.0,91,0.00,,,0.01,meteobridge,2013-07-10 13:05:00,
2013-07-10 09:11:00,75.4,72.5,29.96,SSE,152,0.0,2.9,91,0.00,,,0.01,meteobridge,2013-07-10 13:11:00,
2013-07-10 09:16:00,75.4,72.5,29.96,SSE,152,0.0,0.0,91,0.00,,,0.01,meteobridge,2013-07-10 13:16:00,
2013-07-10 09:21:00,75.6,72.7,29.96,SSE,152,0.9,2.0,91,0.00,,,0.01,meteobridge,2013-07-10 13:21:00,
2013-07-10 09:26:00,75.6,72.5,29.96,SSE,152,0.0,0.0,90,0.00,,,0.01,meteobridge,2013-07-10 13:26:00,
2013-07-10 09:31:00,75.9,72.9,29.96,SSE,152,0.0,0.9,90,0.00,,,0.01,meteobridge,2013-07-10 13:31:00,
2013-07-10 09:36:00,76.1,72.9,29.96,SSE,152,0.0,0.9,90,0.00,,,0.01,meteobridge,2013-07-10 13:36:00,
2013-07-10 09:42:00,76.3,72.9,29.96,SSE,152,0.0,2.0,89,0.00,,,0.01,meteobridge,2013-07-10 13:42:00,
2013-07-10 09:47:00,76.6,73.2,29.96,SSE,152,0.0,0.0,89,0.00,,,0.01,meteobridge,2013-07-10 13:47:00,
2013-07-10 09:52:00,76.8,73.0,29.96,SSE,152,0.0,0.9,88,0.00,,,0.01,meteobridge,2013-07-10 13:52:00,
2013-07-10 09:57:00,77.4,73.2,29.96,SSE,155,0.0,2.0,87,0.00,,,0.01,meteobridge,2013-07-10 13:57:00,
2013-07-10 10:02:00,77.7,73.6,29.96,SSE,155,0.0,0.0,87,0.00,,,0.01,meteobridge,2013-07-10 14:02:00,
2013-07-10 10:07:00,77.9,73.4,29.96,South,184,0.0,0.0,86,0.00,,,0.01,meteobridge,2013-07-10 14:07:00,
2013-07-10 10:12:00,77.9,73.0,29.96,South,184,0.9,4.0,85,0.00,,,0.01,meteobridge,2013-07-10 14:12:00,
2013-07-10 10:18:00,78.1,73.2,29.96,South,184,0.9,2.0,85,0.00,,,0.01,meteobridge,2013-07-10 14:18:00,
2013-07-10 10:23:00,78.1,73.2,29.96,South,184,0.0,0.0,85,0.00,,,0.01,meteobridge,2013-07-10 14:23:00,
2013-07-10 10:28:00,78.1,73.2,29.96,SSW,208,0.0,2.0,85,0.00,,,0.01,meteobridge,2013-07-10 14:28:00,
2013-07-10 10:33:00,78.1,73.2,29.95,South,186,0.9,2.0,85,0.00,,,0.01,meteobridge,2013-07-10 14:33:00,
2013-07-10 10:39:00,77.9,73.0,29.95,SSW,203,0.0,2.9,85,0.00,,,0.01,meteobridge,2013-07-10 14:39:00,
2013-07-10 10:44:00,77.9,73.0,29.95,SSW,203,0.9,2.9,85,0.00,,,0.01,meteobridge,2013-07-10 14:44:00,
2013-07-10 10:49:00,78.1,73.2,29.95,SSW,198,0.0,2.0,85,0.00,,,0.01,meteobridge,2013-07-10 14:49:00,
2013-07-10 10:54:00,78.3,73.4,29.95,SSW,205,0.0,2.9,85,0.00,,,0.01,meteobridge,2013-07-10 14:54:00,
2013-07-10 10:59:00,78.3,73.0,29.95,SSE,161,0.0,2.0,84,0.00,,,0.01,meteobridge,2013-07-10 14:59:00,
2013-07-10 11:05:00,78.6,73.4,29.95,SSE,161,2.0,2.9,84,0.00,,,0.01,meteobridge,2013-07-10 15:05:00,
2013-07-10 11:10:00,79.0,73.8,29.95,SSW,213,0.0,4.9,84,0.00,,,0.01,meteobridge,2013-07-10 15:10:00,
2013-07-10 11:15:00,79.3,73.8,29.95,SSW,206,0.9,4.0,83,0.00,,,0.01,meteobridge,2013-07-10 15:15:00,
2013-07-10 11:20:00,79.9,73.9,29.95,SW,222,2.9,4.9,82,0.00,,,0.01,meteobridge,2013-07-10 15:20:00,
2013-07-10 11:25:00,80.1,74.1,29.95,SW,222,2.9,2.9,82,0.00,,,0.01,meteobridge,2013-07-10 15:25:00,
2013-07-10 11:30:00,80.8,73.9,29.95,WSW,258,2.9,6.0,80,0.00,,,0.01,meteobridge,2013-07-10 15:30:00,
2013-07-10 11:35:00,81.3,74.1,29.95,South,171,2.9,4.9,79,0.00,,,0.01,meteobridge,2013-07-10 15:35:00,
2013-07-10 11:40:00,81.7,74.5,29.95,SSW,198,4.9,6.0,79,0.00,,,0.01,meteobridge,2013-07-10 15:40:00,
2013-07-10 11:45:00,82.4,74.5,29.94,WSW,246,0.9,4.0,77,0.00,,,0.01,meteobridge,2013-07-10 15:45:00,
2013-07-10 11:50:00,83.1,74.8,29.94,WSW,250,2.0,4.9,76,0.00,,,0.01,meteobridge,2013-07-10 15:50:00,
2013-07-10 11:55:00,83.8,75.0,29.94,WSW,257,2.0,4.9,75,0.00,,,0.01,meteobridge,2013-07-10 15:55:00,
2013-07-10 12:00:00,84.4,75.2,29.93,SE,140,4.9,6.9,74,0.00,,,0.01,meteobridge,2013-07-10 16:00:00,
2013-07-10 12:05:00,84.6,75.4,29.93,SE,143,2.9,6.0,74,0.00,,,0.01,meteobridge,2013-07-10 16:05:00,
2013-07-10 12:10:00,84.7,75.6,29.93,SE,143,2.0,2.9,74,0.00,,,0.01,meteobridge,2013-07-10 16:10:00,
2013-07-10 12:15:00,84.7,75.6,29.92,SE,144,2.9,2.9,74,0.00,,,0.01,meteobridge,2013-07-10 16:15:00,
2013-07-10 12:20:00,85.1,75.9,29.92,South,191,0.9,4.0,74,0.00,,,0.01,meteobridge,2013-07-10 16:20:00,
2013-07-10 12:25:00,85.3,74.8,29.92,SSW,206,2.9,6.9,71,0.00,,,0.01,meteobridge,2013-07-10 16:25:00,
2013-07-10 12:30:00,85.5,75.4,29.91,SE,127,0.0,4.0,72,0.00,,,0.01,meteobridge,2013-07-10 16:30:00,
2013-07-10 12:36:00,85.8,76.1,29.91,South,169,0.0,0.9,73,0.00,,,0.01,meteobridge,2013-07-10 16:36:00,
2013-07-10 12:41:00,86.4,76.3,29.91,South,182,0.9,6.0,72,0.00,,,0.01,meteobridge,2013-07-10 16:41:00,
2013-07-10 12:46:00,86.5,76.5,29.91,ESE,110,0.9,2.9,72,0.00,,,0.01,meteobridge,2013-07-10 16:46:00,
2013-07-10 12:51:00,86.5,76.5,29.91,South,186,2.9,6.0,72,0.00,,,0.01,meteobridge,2013-07-10 16:51:00,
2013-07-10 12:56:00,86.7,75.7,29.91,SSE,165,0.9,6.0,70,0.00,,,0.01,meteobridge,2013-07-10 16:56:00,
2013-07-10 13:01:00,87.1,76.5,29.91,SW,217,0.0,6.9,71,0.00,,,0.01,meteobridge,2013-07-10 17:01:00,
2013-07-10 13:06:00,87.6,76.6,29.91,SW,227,2.0,2.9,70,0.00,,,0.01,meteobridge,2013-07-10 17:06:00,
2013-07-10 13:11:00,88.2,76.3,29.91,West,281,2.0,8.1,68,0.00,,,0.01,meteobridge,2013-07-10 17:11:00,
2013-07-10 13:16:00,88.0,76.1,29.91,SSE,164,2.9,2.9,68,0.00,,,0.01,meteobridge,2013-07-10 17:16:00,
2013-07-10 13:21:00,87.8,75.9,29.91,SE,141,2.0,4.9,68,0.00,,,0.01,meteobridge,2013-07-10 17:21:00,
2013-07-10 13:26:00,87.8,75.9,29.91,SSE,162,2.9,6.0,68,0.00,,,0.01,meteobridge,2013-07-10 17:26:00,
2013-07-10 13:31:00,87.4,76.5,29.91,SSE,152,2.0,4.9,70,0.00,,,0.01,meteobridge,2013-07-10 17:31:00,
2013-07-10 13:36:00,87.8,75.9,29.91,SSW,205,0.9,6.9,68,0.00,,,0.01,meteobridge,2013-07-10 17:36:00,
2013-07-10 13:41:00,88.5,76.6,29.91,WSW,256,2.0,4.9,68,0.00,,,0.01,meteobridge,2013-07-10 17:41:00,
2013-07-10 13:46:00,88.3,76.5,29.91,WSW,253,0.9,6.0,68,0.00,,,0.01,meteobridge,2013-07-10 17:46:00,
2013-07-10 13:52:00,88.2,76.3,29.91,SE,131,2.0,10.1,68,0.00,,,0.01,meteobridge,2013-07-10 17:52:00,
2013-07-10 13:57:00,88.2,75.7,29.91,South,184,2.9,12.1,67,0.00,,,0.01,meteobridge,2013-07-10 17:57:00,
2013-07-10 14:02:00,88.2,75.4,29.91,West,275,2.0,6.0,66,0.00,,,0.01,meteobridge,2013-07-10 18:02:00,
2013-07-10 14:07:00,88.5,75.2,29.91,South,179,2.0,6.0,65,0.00,,,0.01,meteobridge,2013-07-10 18:07:00,
2013-07-10 14:12:00,88.2,74.8,29.91,South,191,6.0,11.0,65,0.00,,,0.01,meteobridge,2013-07-10 18:12:00,
2013-07-10 14:17:00,88.3,75.9,29.91,ESE,116,0.0,4.9,67,0.00,,,0.01,meteobridge,2013-07-10 18:17:00,
2013-07-10 14:22:00,88.5,75.2,29.91,SW,219,0.9,4.9,65,0.00,,,0.01,meteobridge,2013-07-10 18:22:00,
2013-07-10 14:27:00,88.3,75.0,29.91,WSW,241,2.0,8.1,65,0.00,,,0.01,meteobridge,2013-07-10 18:27:00,
2013-07-10 14:32:00,88.3,75.0,29.89,SW,229,6.0,6.9,65,0.00,,,0.01,meteobridge,2013-07-10 18:32:00,
2013-07-10 14:37:00,87.8,74.5,29.89,SE,134,2.0,10.1,65,0.00,,,0.01,meteobridge,2013-07-10 18:37:00,
2013-07-10 14:42:00,87.6,74.8,29.89,WSW,258,2.0,4.0,66,0.00,,,0.01,meteobridge,2013-07-10 18:42:00,
2013-07-10 14:47:00,87.1,74.3,29.89,West,272,0.9,10.1,66,0.00,,,0.01,meteobridge,2013-07-10 18:47:00,
2013-07-10 14:52:00,81.7,66.9,29.89,West,267,2.0,10.1,61,0.04,,,0.05,meteobridge,2013-07-10 18:52:00,
2013-07-10 14:57:00,78.4,65.7,29.89,WNW,282,0.9,2.9,65,0.04,,,0.05,meteobridge,2013-07-10 18:57:00,
2013-07-10 15:02:00,77.0,68.0,29.88,North,8,0.9,2.9,74,0.04,,,0.05,meteobridge,2013-07-10 19:02:00,
2013-07-10 15:07:00,77.0,69.6,29.88,North,8,0.0,0.0,78,0.04,,,0.05,meteobridge,2013-07-10 19:07:00,
2013-07-10 15:12:00,77.5,69.8,29.88,NE,55,2.0,2.9,77,0.04,,,0.05,meteobridge,2013-07-10 19:12:00,
2013-07-10 15:17:00,78.8,72.5,29.85,SE,124,0.9,2.0,81,0.04,,,0.05,meteobridge,2013-07-10 19:17:00,
2013-07-10 15:22:00,80.1,72.5,29.85,SE,131,0.0,2.0,78,0.04,,,0.05,meteobridge,2013-07-10 19:22:00,
2013-07-10 15:27:00,81.7,73.0,29.85,South,174,0.0,2.9,75,0.04,,,0.05,meteobridge,2013-07-10 19:27:00,
2013-07-10 15:32:00,82.8,73.2,29.83,South,174,0.0,0.9,73,0.04,,,0.05,meteobridge,2013-07-10 19:32:00,
2013-07-10 15:37:00,83.7,73.6,29.83,South,174,0.0,0.0,72,0.04,,,0.05,meteobridge,2013-07-10 19:37:00,
2013-07-10 15:43:00,84.0,74.5,29.83,South,174,0.0,0.0,73,0.04,,,0.05,meteobridge,2013-07-10 19:43:00,
2013-07-10 15:48:00,84.0,73.6,29.83,NE,48,2.9,6.0,71,0.03,,,0.05,meteobridge,2013-07-10 19:48:00,
2013-07-10 15:53:00,83.7,74.5,29.83,NE,48,0.0,0.0,74,0.00,,,0.05,meteobridge,2013-07-10 19:53:00,
2013-07-10 15:58:00,83.7,74.8,29.83,NE,48,0.0,0.0,75,0.00,,,0.05,meteobridge,2013-07-10 19:58:00,
2013-07-10 16:03:00,83.8,74.3,29.83,NE,48,0.0,0.0,73,0.00,,,0.05,meteobridge,2013-07-10 20:03:00,
2013-07-10 16:08:00,84.0,75.2,29.83,NE,48,0.9,2.0,75,0.00,,,0.05,meteobridge,2013-07-10 20:08:00,
2013-07-10 16:13:00,83.8,76.3,29.83,SW,229,2.9,2.9,78,0.01,,,0.06,meteobridge,2013-07-10 20:13:00,
2013-07-10 16:18:00,83.1,76.3,29.84,SW,229,0.9,2.9,80,0.01,,,0.06,meteobridge,2013-07-10 20:18:00,
2013-07-10 16:23:00,82.6,76.5,29.84,SW,215,6.0,6.9,82,0.01,,,0.06,meteobridge,2013-07-10 20:23:00,
2013-07-10 16:28:00,82.4,77.0,29.84,WSW,239,0.0,0.9,84,0.01,,,0.06,meteobridge,2013-07-10 20:28:00,
2013-07-10 16:33:00,83.1,77.4,29.83,WSW,250,2.0,4.0,83,0.01,,,0.06,meteobridge,2013-07-10 20:33:00,
2013-07-10 16:38:00,83.7,76.5,29.83,WSW,251,0.0,2.0,79,0.01,,,0.06,meteobridge,2013-07-10 20:38:00,
2013-07-10 16:44:00,84.0,75.2,29.83,SSW,206,0.9,4.9,75,0.01,,,0.06,meteobridge,2013-07-10 20:44:00,
2013-07-10 16:49:00,84.7,73.0,29.83,SW,223,0.0,6.0,68,0.01,,,0.06,meteobridge,2013-07-10 20:49:00,
2013-07-10 16:54:00,85.6,73.4,29.83,WSW,244,0.0,4.9,67,0.01,,,0.06,meteobridge,2013-07-10 20:54:00,
2013-07-10 16:59:00,86.5,73.4,29.83,WSW,244,0.9,4.0,65,0.01,,,0.06,meteobridge,2013-07-10 20:59:00,
2013-07-10 17:04:00,86.7,72.1,29.83,SW,223,0.0,4.0,62,0.01,,,0.06,meteobridge,2013-07-10 21:04:00,
2013-07-10 17:09:00,86.2,72.1,29.83,SW,227,0.0,6.0,63,0.01,,,0.06,meteobridge,2013-07-10 21:09:00,
2013-07-10 17:14:00,86.2,72.5,29.83,SSW,193,4.0,4.9,64,0.00,,,0.06,meteobridge,2013-07-10 21:14:00,
2013-07-10 17:19:00,85.6,72.5,29.83,South,184,0.9,2.9,65,0.00,,,0.06,meteobridge,2013-07-10 21:19:00,
2013-07-10 17:24:00,85.8,73.6,29.83,South,184,0.9,4.9,67,0.00,,,0.06,meteobridge,2013-07-10 21:24:00,
2013-07-10 17:29:00,85.8,73.2,29.83,SW,236,2.9,4.9,66,0.00,,,0.06,meteobridge,2013-07-10 21:29:00,
2013-07-10 17:34:00,85.6,73.9,29.83,SW,230,0.9,2.9,68,0.00,,,0.06,meteobridge,2013-07-10 21:34:00,
2013-07-10 17:39:00,85.3,73.9,29.83,SW,236,2.0,4.0,69,0.00,,,0.06,meteobridge,2013-07-10 21:39:00,
2013-07-10 17:45:00,84.9,74.1,29.83,SW,226,0.0,0.9,70,0.00,,,0.06,meteobridge,2013-07-10 21:45:00,
2013-07-10 17:50:00,84.9,74.5,29.83,SW,226,0.0,2.9,71,0.00,,,0.06,meteobridge,2013-07-10 21:50:00,
2013-07-10 17:55:00,84.7,74.7,29.83,SW,236,0.0,0.9,72,0.00,,,0.06,meteobridge,2013-07-10 21:55:00,
2013-07-10 18:01:00,84.6,74.5,29.85,WSW,237,0.0,0.0,72,0.00,,,0.06,meteobridge,2013-07-10 22:01:00,
2013-07-10 18:06:00,84.6,74.5,29.85,WSW,237,0.0,0.0,72,0.00,,,0.06,meteobridge,2013-07-10 22:06:00,
2013-07-10 18:11:00,84.4,74.3,29.85,West,275,2.0,2.9,72,0.00,,,0.06,meteobridge,2013-07-10 22:11:00,
2013-07-10 18:16:00,84.0,75.2,29.86,West,275,0.9,2.0,75,0.00,,,0.06,meteobridge,2013-07-10 22:16:00,
2013-07-10 18:21:00,83.7,75.2,29.86,West,275,0.9,0.9,76,0.00,,,0.06,meteobridge,2013-07-10 22:21:00,
2013-07-10 18:26:00,83.1,75.2,29.86,NNE,27,6.0,6.9,77,0.00,,,0.06,meteobridge,2013-07-10 22:26:00,
2013-07-10 18:31:00,81.1,70.3,29.89,NE,34,2.0,10.1,70,0.00,,,0.06,meteobridge,2013-07-10 22:31:00,
2013-07-10 18:36:00,78.6,68.9,29.89,North,0,4.9,11.0,72,0.00,,,0.06,meteobridge,2013-07-10 22:36:00,
2013-07-10 18:41:00,77.4,68.9,29.89,NNE,32,2.0,12.1,75,0.00,,,0.06,meteobridge,2013-07-10 22:41:00,
2013-07-10 18:51:00,73.9,69.4,29.91,NW,309,0.9,6.0,86,0.03,,,0.09,meteobridge,2013-07-10 22:51:00,
2013-07-10 18:56:00,73.0,69.6,29.91,NNW,333,0.0,11.0,89,0.04,,,0.10,meteobridge,2013-07-10 22:56:00,
2013-07-10 19:01:00,72.5,70.0,29.90,WSW,256,2.0,4.9,92,0.08,,,0.14,meteobridge,2013-07-10 23:01:00,
2013-07-10 19:06:00,72.3,70.2,29.90,North,0,0.0,0.9,93,0.10,,,0.16,meteobridge,2013-07-10 23:06:00,
2013-07-10 19:12:00,72.0,70.2,29.90,North,1,0.0,0.0,94,0.10,,,0.16,meteobridge,2013-07-10 23:12:00,
2013-07-10 19:17:00,71.8,70.0,29.90,North,4,0.0,0.9,94,0.10,,,0.16,meteobridge,2013-07-10 23:17:00,
2013-07-10 19:22:00,71.8,70.3,29.90,North,3,0.0,0.0,95,0.10,,,0.16,meteobridge,2013-07-10 23:22:00,
2013-07-10 19:27:00,71.6,70.2,29.90,North,3,0.0,0.0,95,0.10,,,0.16,meteobridge,2013-07-10 23:27:00,
2013-07-10 19:32:00,71.6,70.2,29.90,North,3,0.0,0.0,95,0.12,,,0.18,meteobridge,2013-07-10 23:32:00,
2013-07-10 19:37:00,71.8,70.3,29.90,North,3,0.0,0.9,95,0.13,,,0.19,meteobridge,2013-07-10 23:37:00,
2013-07-10 19:42:00,71.8,70.3,29.90,North,3,2.0,2.9,95,0.16,,,0.22,meteobridge,2013-07-10 23:42:00,
2013-07-10 19:48:00,71.6,70.2,29.89,North,6,0.0,0.9,95,0.16,,,0.23,meteobridge,2013-07-10 23:48:00,
2013-07-10 19:53:00,71.4,70.0,29.89,NE,34,0.0,2.0,95,0.15,,,0.24,meteobridge,2013-07-10 23:53:00,
2013-07-10 19:58:00,71.1,69.6,29.89,NNE,32,0.9,2.0,95,0.14,,,0.25,meteobridge,2013-07-10 23:58:00,
2013-07-10 20:03:00,70.9,69.6,29.89,NE,41,2.0,6.9,96,0.11,,,0.26,meteobridge,2013-07-11 00:03:00,
2013-07-10 20:08:00,70.9,69.6,29.89,East,95,2.9,2.9,96,0.11,,,0.27,meteobridge,2013-07-11 00:08:00,
2013-07-10 20:13:00,70.9,69.6,29.89,ESE,106,2.0,2.0,96,0.12,,,0.28,meteobridge,2013-07-11 00:13:00,
2013-07-10 20:18:00,70.5,69.3,29.88,SSE,147,4.0,8.9,96,0.12,,,0.28,meteobridge,2013-07-11 00:18:00,
2013-07-10 20:23:00,70.3,69.4,29.88,ESE,107,11.0,11.0,97,0.13,,,0.29,meteobridge,2013-07-11 00:23:00,
2013-07-10 20:28:00,70.2,69.3,29.88,ESE,107,2.0,11.0,97,0.13,,,0.29,meteobridge,2013-07-11 00:28:00,
2013-07-10 20:33:00,70.0,69.1,29.87,ESE,119,4.9,6.9,97,0.12,,,0.30,meteobridge,2013-07-11 00:33:00,
2013-07-10 20:38:00,70.0,69.1,29.87,ENE,65,0.0,2.9,97,0.10,,,0.30,meteobridge,2013-07-11 00:38:00,
2013-07-10 20:43:00,70.0,69.1,29.87,ESE,121,0.9,2.9,97,0.08,,,0.30,meteobridge,2013-07-11 00:43:00,
2013-07-10 20:48:00,69.8,68.9,29.89,East,80,6.0,6.0,97,0.06,,,0.30,meteobridge,2013-07-11 00:48:00,
2013-07-10 20:53:00,69.4,68.5,29.89,ENE,68,0.9,4.9,97,0.05,,,0.30,meteobridge,2013-07-11 00:53:00,
2013-07-10 20:58:00,69.1,68.2,29.89,ENE,61,2.9,4.9,97,0.05,,,0.30,meteobridge,2013-07-11 00:58:00,
2013-07-10 21:04:00,68.9,68.0,29.90,ENE,72,0.0,6.9,97,0.04,,,0.30,meteobridge,2013-07-11 01:04:00,
2013-07-10 21:09:00,68.5,67.3,29.90,East,79,0.9,6.0,96,0.03,,,0.30,meteobridge,2013-07-11 01:09:00,
2013-07-10 21:14:00,68.4,67.1,29.91,East,85,2.0,2.9,96,0.02,,,0.30,meteobridge,2013-07-11 01:14:00,
2013-07-10 21:19:00,68.4,67.1,29.91,ENE,58,0.9,4.0,96,0.02,,,0.30,meteobridge,2013-07-11 01:19:00,
2013-07-10 21:24:00,68.4,67.1,29.91,North,11,2.0,4.0,96,0.01,,,0.30,meteobridge,2013-07-11 01:24:00,
2013-07-10 21:30:00,68.4,66.9,29.91,North,11,0.0,0.0,95,0.01,,,0.30,meteobridge,2013-07-11 01:30:00,
2013-07-10 21:35:00,68.4,66.9,29.91,North,11,0.0,0.9,95,0.00,,,0.30,meteobridge,2013-07-11 01:35:00,
2013-07-10 21:40:00,68.4,66.9,29.91,North,11,0.0,0.9,95,0.00,,,0.30,meteobridge,2013-07-11 01:40:00,
2013-07-10 21:45:00,68.4,66.9,29.90,East,93,0.9,2.9,95,0.00,,,0.30,meteobridge,2013-07-11 01:45:00,
2013-07-10 21:50:00,68.4,66.9,29.90,SE,141,0.9,2.9,95,0.00,,,0.30,meteobridge,2013-07-11 01:50:00,
2013-07-10 21:55:00,68.2,66.9,29.90,SSE,147,0.0,0.0,96,0.00,,,0.30,meteobridge,2013-07-11 01:55:00,
2013-07-10 22:00:00,68.2,66.9,29.90,SSE,147,0.0,0.9,96,0.00,,,0.30,meteobridge,2013-07-11 02:00:00,
2013-07-10 22:05:00,68.2,66.7,29.90,SSE,147,0.0,0.0,95,0.00,,,0.30,meteobridge,2013-07-11 02:05:00,
2013-07-10 22:10:00,68.2,66.9,29.90,SSE,147,0.0,0.0,96,0.00,,,0.30,meteobridge,2013-07-11 02:10:00,
2013-07-10 22:15:00,68.2,66.7,29.91,SSE,147,0.0,2.0,95,0.00,,,0.30,meteobridge,2013-07-11 02:15:00,
2013-07-10 22:20:00,68.2,66.7,29.91,SSE,147,0.0,0.0,95,0.00,,,0.30,meteobridge,2013-07-11 02:20:00,
2013-07-10 22:26:00,68.2,66.9,29.91,SSE,147,0.0,0.0,96,0.00,,,0.30,meteobridge,2013-07-11 02:26:00,
2013-07-10 22:31:00,68.2,66.9,29.91,SSE,147,0.0,0.0,96,0.00,,,0.30,meteobridge,2013-07-11 02:31:00,
2013-07-10 22:36:00,67.8,66.6,29.91,SSE,147,0.0,0.0,96,0.00,,,0.30,meteobridge,2013-07-11 02:36:00,
2013-07-10 22:41:00,67.8,66.6,29.91,SSE,147,0.0,0.0,96,0.00,,,0.30,meteobridge,2013-07-11 02:41:00,
2013-07-10 22:46:00,67.8,66.6,29.92,SSE,147,0.0,0.0,96,0.00,,,0.30,meteobridge,2013-07-11 02:46:00,
2013-07-10 22:51:00,67.8,66.6,29.92,SSE,147,0.0,0.0,96,0.00,,,0.30,meteobridge,2013-07-11 02:51:00,
2013-07-10 22:57:00,68.2,66.9,29.92,SSE,147,0.0,0.0,96,0.00,,,0.30,meteobridge,2013-07-11 02:57:00,
2013-07-10 23:02:00,68.2,66.9,29.92,SSE,147,0.0,0.0,96,0.00,,,0.30,meteobridge,2013-07-11 03:02:00,
2013-07-10 23:07:00,67.8,66.6,29.92,SSE,147,0.0,0.0,96,0.00,,,0.30,meteobridge,2013-07-11 03:07:00,
2013-07-10 23:12:00,68.2,67.3,29.92,SSE,147,0.0,0.0,97,0.00,,,0.30,meteobridge,2013-07-11 03:12:00,
2013-07-10 23:17:00,68.2,67.3,29.92,SSE,147,0.0,0.0,97,0.00,,,0.30,meteobridge,2013-07-11 03:17:00,
2013-07-10 23:22:00,68.2,67.3,29.92,SSE,147,0.0,0.0,97,0.00,,,0.30,meteobridge,2013-07-11 03:22:00,
2013-07-10 23:27:00,67.8,66.9,29.92,SSE,147,0.0,0.0,97,0.00,,,0.30,meteobridge,2013-07-11 03:27:00,
2013-07-10 23:32:00,67.8,66.9,29.92,SSE,147,0.0,0.0,97,0.00,,,0.30,meteobridge,2013-07-11 03:32:00,
2013-07-10 23:38:00,67.8,66.9,29.92,SSE,147,0.0,2.0,97,0.00,,,0.30,meteobridge,2013-07-11 03:38:00,
2013-07-10 23:43:00,67.8,66.9,29.92,West,268,2.0,4.9,97,0.00,,,0.30,meteobridge,2013-07-11 03:43:00,
2013-07-10 23:48:00,67.8,66.9,29.93,West,265,0.0,2.0,97,0.00,,,0.30,meteobridge,2013-07-11 03:48:00,
2013-07-10 23:53:00,67.8,66.9,29.93,West,265,0.0,2.9,97,0.00,,,0.30,meteobridge,2013-07-11 03:53:00,
2013-07-10 23:58:00,67.8,66.9,29.93,West,265,0.0,2.9,97,0.00,,,0.30,meteobridge,2013-07-11 03:58:00,